createdAt,value
2024-02-27T00:00:16.021Z,100467.34
2024-02-27T00:02:42.642Z,100467.19
2024-02-27T00:05:09.389Z,100466.72
2024-02-27T00:07:36.089Z,100477.53
2024-02-27T00:10:05.181Z,100472.00
2024-02-27T00:12:32.283Z,100479.84
2024-02-27T00:14:58.892Z,100484.34
2024-02-27T00:17:25.504Z,100487.09
2024-02-27T00:19:52.552Z,100483.03
2024-02-27T00:22:19.728Z,100487.28
2024-02-27T00:24:46.399Z,100492.19
2024-02-27T00:27:13.139Z,100483.72
2024-02-27T00:29:41.145Z,100482.41
2024-02-27T00:32:08.084Z,100483.63
2024-02-27T00:34:36.442Z,100483.63
2024-02-27T00:37:03.170Z,100487.47
2024-02-27T00:39:29.712Z,100479.25
2024-02-27T00:41:58.261Z,100479.25
2024-02-27T00:44:25.342Z,100483.69
2024-02-27T00:46:51.903Z,100484.53
2024-02-27T00:49:18.735Z,100477.78
2024-02-27T00:51:45.400Z,100493.44
2024-02-27T00:54:12.049Z,100488.31
2024-02-27T00:56:38.889Z,100486.84
2024-02-27T00:59:05.463Z,100490.88
2024-02-27T01:01:32.089Z,100499.59
2024-02-27T01:03:58.820Z,100504.91
2024-02-27T01:06:25.536Z,100499.81
2024-02-27T01:08:52.269Z,100500.19
2024-02-27T01:11:19.056Z,100497.81
2024-02-27T01:13:45.731Z,100505.88
2024-02-27T01:16:12.393Z,100503.56
2024-02-27T01:18:39.009Z,100508.44
2024-02-27T01:21:07.466Z,100502.28
2024-02-27T01:23:34.063Z,100508.63
2024-02-27T01:26:00.813Z,100503.06
2024-02-27T01:28:27.369Z,100518.91
2024-02-27T01:30:53.935Z,100516.50
2024-02-27T01:33:20.671Z,100530.84
2024-02-27T01:35:48.521Z,100527.22
2024-02-27T01:38:15.190Z,100531.91
2024-02-27T01:40:41.825Z,100522.34
2024-02-27T01:43:26.664Z,100519.66
2024-02-27T01:46:19.635Z,100515.13
2024-02-27T01:48:47.645Z,100527.22
2024-02-27T01:51:15.915Z,100526.00
2024-02-27T01:53:44.711Z,100530.22
2024-02-27T01:56:11.924Z,100530.63
2024-02-27T01:58:39.365Z,100532.78
2024-02-27T02:01:07.517Z,100528.53
2024-02-27T02:03:38.377Z,100539.09
2024-02-27T02:06:07.516Z,100544.19
2024-02-27T02:08:35.566Z,100538.25
2024-02-27T02:11:05.329Z,100535.47
2024-02-27T02:13:32.670Z,100535.34
2024-02-27T02:15:59.914Z,100544.13
2024-02-27T02:18:26.809Z,100547.16
2024-02-27T02:20:53.468Z,100551.88
2024-02-27T02:23:20.171Z,100547.25
2024-02-27T02:25:50.739Z,100552.38
2024-02-27T02:28:17.615Z,100552.38
2024-02-27T02:30:44.376Z,100557.47
2024-02-27T02:33:12.913Z,100553.19
2024-02-27T02:35:43.887Z,100555.72
2024-02-27T02:38:10.721Z,100562.69
2024-02-27T02:40:37.239Z,100565.75
2024-02-27T02:43:04.071Z,100579.53
2024-02-27T02:45:30.680Z,100579.50
2024-02-27T02:47:58.285Z,100580.97
2024-02-27T02:50:24.906Z,100577.81
2024-02-27T02:52:51.602Z,100585.47
2024-02-27T02:55:18.277Z,100578.56
2024-02-27T02:57:44.997Z,100580.19
2024-02-27T03:00:12.511Z,100590.44
2024-02-27T03:02:39.157Z,100581.44
2024-02-27T03:05:06.380Z,100586.31
2024-02-27T03:07:33.176Z,100582.72
2024-02-27T03:09:59.722Z,100582.28
2024-02-27T03:12:26.556Z,100576.59
2024-02-27T03:14:53.839Z,100586.91
2024-02-27T03:17:20.414Z,100580.41
2024-02-27T03:19:47.168Z,100575.88
2024-02-27T03:22:14.681Z,100590.84
2024-02-27T03:24:41.444Z,100584.13
2024-02-27T03:27:08.090Z,100577.94
2024-02-27T03:29:34.643Z,100581.38
2024-02-27T03:32:01.350Z,100572.44
2024-02-27T03:34:28.184Z,100580.44
2024-02-27T03:36:54.902Z,100569.53
2024-02-27T03:39:21.787Z,100580.94
2024-02-27T03:41:48.567Z,100582.22
2024-02-27T03:44:15.154Z,100591.00
2024-02-27T03:46:41.849Z,100589.16
2024-02-27T03:49:08.462Z,100598.69
2024-02-27T03:51:35.244Z,100601.06
2024-02-27T03:54:02.194Z,100606.25
2024-02-27T03:56:28.827Z,100614.31
2024-02-27T03:58:55.351Z,100610.31
2024-02-27T04:01:22.171Z,100603.97
2024-02-27T04:03:48.744Z,100603.03
2024-02-27T04:06:16.409Z,100597.25
2024-02-27T04:08:42.993Z,100601.59
2024-02-27T04:11:09.699Z,100605.34
2024-02-27T04:13:36.581Z,100603.81
2024-02-27T04:16:03.494Z,100609.44
2024-02-27T04:18:30.161Z,100614.84
2024-02-27T04:20:56.815Z,100615.53
2024-02-27T04:23:23.416Z,100619.22
2024-02-27T04:25:50.017Z,100632.16
2024-02-27T04:28:16.698Z,100628.22
2024-02-27T04:30:48.453Z,100628.22
2024-02-27T04:33:20.202Z,100631.66
2024-02-27T04:35:47.049Z,100636.94
2024-02-27T04:38:13.707Z,100640.16
2024-02-27T04:40:41.423Z,100636.59
2024-02-27T04:43:07.944Z,100644.28
2024-02-27T04:45:34.634Z,100633.31
2024-02-27T04:48:05.601Z,100638.31
2024-02-27T04:50:32.259Z,100635.56
2024-02-27T04:52:59.703Z,100640.66
2024-02-27T04:55:27.555Z,100632.72
2024-02-27T04:57:54.793Z,100626.81
2024-02-27T05:00:21.824Z,100635.47
2024-02-27T05:02:48.399Z,100642.81
2024-02-27T05:05:14.910Z,100647.22
2024-02-27T05:07:41.488Z,100645.53
2024-02-27T05:10:08.384Z,100650.97
2024-02-27T05:12:35.021Z,100658.22
2024-02-27T05:15:01.790Z,100659.81
2024-02-27T05:17:28.679Z,100653.56
2024-02-27T05:19:55.235Z,100658.38
2024-02-27T05:22:21.816Z,100671.06
2024-02-27T05:24:48.478Z,100675.50
2024-02-27T05:27:15.551Z,100671.22
2024-02-27T05:29:43.029Z,100685.72
2024-02-27T05:32:10.118Z,100690.19
2024-02-27T05:34:36.893Z,100692.41
2024-02-27T05:37:03.869Z,100693.13
2024-02-27T05:39:30.492Z,100693.81
2024-02-27T05:41:57.092Z,100701.28
2024-02-27T05:44:23.761Z,100698.81
2024-02-27T05:46:50.329Z,100699.53
2024-02-27T05:49:17.058Z,100705.31
2024-02-27T05:51:43.838Z,100711.28
2024-02-27T05:54:10.582Z,100717.00
2024-02-27T05:56:37.172Z,100722.59
2024-02-27T05:59:03.730Z,100723.66
2024-02-27T06:01:30.361Z,100734.94
2024-02-27T06:03:57.140Z,100736.69
2024-02-27T06:06:23.802Z,100749.19
2024-02-27T06:08:50.489Z,100749.31
2024-02-27T06:11:17.069Z,100748.63
2024-02-27T06:13:45.026Z,100751.59
2024-02-27T06:16:11.978Z,100750.59
2024-02-27T06:18:39.207Z,100757.25
2024-02-27T06:21:24.558Z,100756.41
2024-02-27T06:23:52.675Z,100745.13
2024-02-27T06:26:19.450Z,100755.34
2024-02-27T06:28:46.035Z,100758.13
2024-02-27T06:31:13.588Z,100754.78
2024-02-27T06:33:40.428Z,100767.28
2024-02-27T06:36:07.329Z,100759.72
2024-02-27T06:38:33.901Z,100780.94
2024-02-27T06:41:00.542Z,100780.75
2024-02-27T06:43:27.294Z,100786.34
2024-02-27T06:45:54.097Z,100777.50
2024-02-27T06:48:20.739Z,100785.28
2024-02-27T06:50:47.502Z,100783.31
2024-02-27T06:53:14.202Z,100783.13
2024-02-27T06:55:40.861Z,100783.69
2024-02-27T06:58:08.551Z,100782.84
2024-02-27T07:00:35.195Z,100787.13
2024-02-27T07:03:03.815Z,100788.63
2024-02-27T07:05:35.905Z,100791.84
2024-02-27T07:08:11.177Z,100798.78
2024-02-27T07:10:39.013Z,100808.28
2024-02-27T07:13:10.353Z,100801.78
2024-02-27T07:15:38.307Z,100814.22
2024-02-27T07:18:05.571Z,100810.56
2024-02-27T07:20:32.705Z,100818.22
2024-02-27T07:23:00.646Z,100814.63
2024-02-27T07:25:27.942Z,100819.91
2024-02-27T07:27:54.858Z,100825.78
2024-02-27T07:30:22.090Z,100825.25
2024-02-27T07:32:48.677Z,100823.94
2024-02-27T07:35:15.485Z,100828.56
2024-02-27T07:37:42.218Z,100832.44
2024-02-27T07:40:09.351Z,100832.59
2024-02-27T07:42:36.030Z,100844.31
2024-02-27T07:45:02.689Z,100846.72
2024-02-27T07:47:29.925Z,100842.22
2024-02-27T07:49:56.829Z,100847.44
2024-02-27T07:52:23.710Z,100847.75
2024-02-27T07:54:50.921Z,100840.22
2024-02-27T07:57:17.596Z,100834.75
2024-02-27T07:59:44.220Z,100842.69
2024-02-27T08:02:10.872Z,100840.16
2024-02-27T08:04:37.678Z,100828.75
2024-02-27T08:07:04.890Z,100837.41
2024-02-27T08:09:33.412Z,100849.16
2024-02-27T08:12:00.037Z,100847.16
2024-02-27T08:14:26.728Z,100849.34
2024-02-27T08:16:53.424Z,100857.34
2024-02-27T08:19:20.139Z,100864.25
2024-02-27T08:21:46.757Z,100871.53
2024-02-27T08:24:14.176Z,100871.09
2024-02-27T08:26:44.834Z,100873.25
2024-02-27T08:29:14.194Z,100868.66
2024-02-27T08:31:41.308Z,100875.06
2024-02-27T08:34:08.850Z,100874.88
2024-02-27T08:36:36.591Z,100888.81
2024-02-27T08:39:05.275Z,100894.53
2024-02-27T08:41:33.925Z,100898.03
2024-02-27T08:44:00.528Z,100897.91
2024-02-27T08:46:27.155Z,100897.34
2024-02-27T08:48:54.300Z,100893.09
2024-02-27T08:51:21.092Z,100894.59
2024-02-27T08:53:48.136Z,100895.56
2024-02-27T08:56:14.847Z,100889.56
2024-02-27T08:58:42.154Z,100895.66
2024-02-27T09:01:08.701Z,100896.13
2024-02-27T09:03:35.706Z,100887.28
2024-02-27T09:06:03.451Z,100887.28
2024-02-27T09:08:30.241Z,100896.75
2024-02-27T09:10:56.852Z,100887.97
2024-02-27T09:13:23.571Z,100884.91
2024-02-27T09:15:50.177Z,100878.56
2024-02-27T09:18:16.912Z,100875.94
2024-02-27T09:20:44.698Z,100882.00
2024-02-27T09:23:11.813Z,100881.25
2024-02-27T09:25:39.157Z,100885.59
2024-02-27T09:28:06.198Z,100888.28
2024-02-27T09:30:32.851Z,100893.72
2024-02-27T09:32:59.677Z,100887.38
2024-02-27T09:35:26.283Z,100888.41
2024-02-27T09:37:55.618Z,100903.41
2024-02-27T09:40:23.504Z,100903.16
2024-02-27T09:42:53.175Z,100906.28
2024-02-27T09:45:20.862Z,100915.03
2024-02-27T09:47:49.487Z,100924.69
2024-02-27T09:50:20.833Z,100925.63
2024-02-27T09:52:52.103Z,100926.22
2024-02-27T09:55:22.628Z,100917.78
2024-02-27T09:57:50.694Z,100930.78
2024-02-27T10:00:18.177Z,100937.75
2024-02-27T10:02:48.803Z,100928.19
2024-02-27T10:05:18.464Z,100936.91
2024-02-27T10:07:50.058Z,100925.94
2024-02-27T10:10:17.424Z,100925.81
2024-02-27T10:12:44.761Z,100931.50
2024-02-27T10:15:11.793Z,100940.72
2024-02-27T10:17:39.433Z,100946.59
2024-02-27T10:20:11.576Z,100941.41
2024-02-27T10:22:42.595Z,100956.97
2024-02-27T10:25:17.916Z,100952.34
2024-02-27T10:27:44.693Z,100955.66
2024-02-27T10:30:15.906Z,100966.84
2024-02-27T10:32:43.202Z,100973.69
2024-02-27T10:35:10.612Z,100968.56
2024-02-27T10:37:37.485Z,100971.31
2024-02-27T10:40:08.251Z,100975.19
2024-02-27T10:42:35.046Z,100975.72
2024-02-27T10:45:02.170Z,100979.00
2024-02-27T10:47:29.012Z,100977.66
2024-02-27T10:49:56.162Z,100969.59
2024-02-27T10:52:27.783Z,100974.59
2024-02-27T10:54:56.234Z,100960.28
2024-02-27T10:57:22.997Z,100961.72
2024-02-27T10:59:52.957Z,100954.78
2024-02-27T11:02:20.221Z,100958.06
2024-02-27T11:04:48.335Z,100958.28
2024-02-27T11:07:18.923Z,100956.84
2024-02-27T11:09:48.736Z,100947.34
2024-02-27T11:12:16.690Z,100948.34
2024-02-27T11:14:49.370Z,100942.38
2024-02-27T11:17:22.986Z,100938.56
2024-02-27T11:19:51.535Z,100940.69
2024-02-27T11:22:21.710Z,100938.16
2024-02-27T11:24:49.104Z,100944.59
2024-02-27T11:27:21.354Z,100946.25
2024-02-27T11:29:49.942Z,100942.44
2024-02-27T11:32:20.645Z,100939.84
2024-02-27T11:34:48.520Z,100947.69
2024-02-27T11:37:22.783Z,100949.38
2024-02-27T11:39:50.462Z,100946.00
2024-02-27T11:42:37.900Z,100942.88
2024-02-27T11:45:06.611Z,100945.22
2024-02-27T11:47:48.753Z,100947.44
2024-02-27T11:50:36.066Z,100932.47
2024-02-27T11:53:18.439Z,100936.78
2024-02-27T11:55:46.068Z,100933.34
2024-02-27T11:58:13.218Z,100913.28
2024-02-27T12:00:40.079Z,100918.16
2024-02-27T12:03:10.550Z,100913.84
2024-02-27T12:05:37.701Z,100910.75
2024-02-27T12:08:05.860Z,100903.72
2024-02-27T12:10:33.318Z,100906.84
2024-02-27T12:12:59.971Z,100899.81
2024-02-27T12:15:27.680Z,100901.19
2024-02-27T12:17:54.663Z,100899.72
2024-02-27T12:20:21.724Z,100900.38
2024-02-27T12:22:51.869Z,100907.81
2024-02-27T12:25:18.589Z,100901.22
2024-02-27T12:27:46.436Z,100906.25
2024-02-27T12:30:14.316Z,100912.06
2024-02-27T12:32:42.739Z,100905.72
2024-02-27T12:35:14.147Z,100901.06
2024-02-27T12:37:44.389Z,100909.22
2024-02-27T12:40:21.095Z,100906.41
2024-02-27T12:42:50.557Z,100903.72
2024-02-27T12:45:19.318Z,100901.94
2024-02-27T12:47:50.603Z,100906.75
2024-02-27T12:50:23.544Z,100900.75
2024-02-27T12:52:59.065Z,100905.06
2024-02-27T12:55:33.739Z,100898.34
2024-02-27T12:58:00.431Z,100904.34
2024-02-27T13:00:31.857Z,100903.22
2024-02-27T13:02:59.086Z,100903.09
2024-02-27T13:05:26.741Z,100894.66
2024-02-27T13:07:55.086Z,100899.41
2024-02-27T13:10:22.381Z,100901.53
2024-02-27T13:13:09.312Z,100894.31
2024-02-27T13:15:36.623Z,100885.75
2024-02-27T13:18:03.559Z,100870.25
2024-02-27T13:20:30.313Z,100886.09
2024-02-27T13:23:02.834Z,100881.50
2024-02-27T13:25:33.670Z,100882.28
2024-02-27T13:28:00.432Z,100870.06
2024-02-27T13:30:27.190Z,100863.59
2024-02-27T13:32:54.188Z,100865.88
2024-02-27T13:35:21.703Z,100861.66
2024-02-27T13:37:48.677Z,100858.94
2024-02-27T13:40:15.295Z,100848.75
2024-02-27T13:42:42.039Z,100854.31
2024-02-27T13:45:09.105Z,100846.44
2024-02-27T13:47:35.782Z,100850.81
2024-02-27T13:50:02.562Z,100843.22
2024-02-27T13:52:29.195Z,100842.13
2024-02-27T13:54:55.817Z,100841.88
2024-02-27T13:57:23.160Z,100838.06
2024-02-27T13:59:49.915Z,100837.16
2024-02-27T14:02:16.774Z,100832.72
2024-02-27T14:04:43.519Z,100827.63
2024-02-27T14:07:10.298Z,100825.25
2024-02-27T14:09:37.122Z,100821.25
2024-02-27T14:12:04.098Z,100827.06
2024-02-27T14:14:30.910Z,100825.22
2024-02-27T14:16:57.495Z,100825.25
2024-02-27T14:19:24.301Z,100824.19
2024-02-27T14:21:51.178Z,100835.19
2024-02-27T14:24:17.850Z,100827.97
2024-02-27T14:26:44.466Z,100832.63
2024-02-27T14:29:11.066Z,100829.44
2024-02-27T14:31:37.601Z,100823.72
2024-02-27T14:34:04.729Z,100828.44
2024-02-27T14:36:34.205Z,100820.00
2024-02-27T14:39:00.755Z,100821.72
2024-02-27T14:41:27.350Z,100811.69
2024-02-27T14:43:54.889Z,100802.28
2024-02-27T14:46:23.426Z,100819.16
2024-02-27T14:48:53.533Z,100811.31
2024-02-27T14:51:20.489Z,100813.44
2024-02-27T14:53:49.395Z,100820.28
2024-02-27T14:56:16.638Z,100817.09
2024-02-27T14:58:43.746Z,100826.91
2024-02-27T15:01:10.568Z,100829.22
2024-02-27T15:03:37.815Z,100829.63
2024-02-27T15:06:04.730Z,100826.44
2024-02-27T15:08:31.525Z,100817.72
2024-02-27T15:10:59.232Z,100830.28
2024-02-27T15:13:25.932Z,100833.91
2024-02-27T15:15:52.650Z,100824.72
2024-02-27T15:18:21.348Z,100833.47
2024-02-27T15:20:49.132Z,100839.25
2024-02-27T15:23:15.677Z,100834.13
2024-02-27T15:25:42.291Z,100836.47
2024-02-27T15:28:08.942Z,100827.75
2024-02-27T15:30:35.603Z,100821.75
2024-02-27T15:33:02.417Z,100823.69
2024-02-27T15:35:29.039Z,100815.19
2024-02-27T15:37:55.650Z,100813.47
2024-02-27T15:40:22.215Z,100819.88
2024-02-27T15:42:48.848Z,100815.81
2024-02-27T15:45:15.581Z,100810.28
2024-02-27T15:47:42.275Z,100826.88
2024-02-27T15:50:09.173Z,100821.09
2024-02-27T15:52:35.749Z,100824.56
2024-02-27T15:55:02.596Z,100820.91
2024-02-27T15:57:29.695Z,100821.38
2024-02-27T15:59:56.525Z,100814.09
2024-02-27T16:02:25.604Z,100829.44
2024-02-27T16:04:59.010Z,100836.47
2024-02-27T16:07:34.614Z,100836.22
2024-02-27T16:10:03.957Z,100831.97
2024-02-27T16:12:35.070Z,100838.81
2024-02-27T16:15:04.375Z,100838.50
2024-02-27T16:17:31.168Z,100849.31
2024-02-27T16:19:58.065Z,100840.00
2024-02-27T16:22:24.991Z,100846.16
2024-02-27T16:24:53.209Z,100854.84
2024-02-27T16:27:20.393Z,100863.31
2024-02-27T16:29:47.122Z,100860.13
2024-02-27T16:32:13.813Z,100860.72
2024-02-27T16:34:40.561Z,100860.41
2024-02-27T16:37:08.002Z,100860.69
2024-02-27T16:39:34.902Z,100860.56
2024-02-27T16:42:01.510Z,100872.09
2024-02-27T16:44:28.070Z,100877.38
2024-02-27T16:46:55.183Z,100875.94
2024-02-27T16:49:22.138Z,100883.59
2024-02-27T16:51:48.914Z,100884.97
2024-02-27T16:54:15.773Z,100887.22
2024-02-27T16:56:42.836Z,100887.94
2024-02-27T16:59:09.488Z,100889.78
2024-02-27T17:01:36.062Z,100887.44
2024-02-27T17:04:02.949Z,100891.53
2024-02-27T17:06:30.964Z,100893.97
2024-02-27T17:08:57.740Z,100905.28
2024-02-27T17:11:24.387Z,100916.97
2024-02-27T17:13:51.612Z,100915.28
2024-02-27T17:16:18.193Z,100915.00
2024-02-27T17:18:44.954Z,100922.47
2024-02-27T17:21:11.607Z,100913.75
2024-02-27T17:23:38.204Z,100919.34
2024-02-27T17:26:05.932Z,100926.97
2024-02-27T17:28:32.657Z,100922.94
2024-02-27T17:30:59.352Z,100935.81
2024-02-27T17:33:27.610Z,100933.72
2024-02-27T17:35:54.311Z,100939.94
2024-02-27T17:38:20.891Z,100940.75
2024-02-27T17:40:47.568Z,100952.09
2024-02-27T17:43:14.195Z,100949.13
2024-02-27T17:45:40.780Z,100954.84
2024-02-27T17:48:08.237Z,100952.47
2024-02-27T17:50:35.023Z,100963.00
2024-02-27T17:53:01.865Z,100958.06
2024-02-27T17:55:28.417Z,100965.69
2024-02-27T17:57:54.931Z,100972.16
2024-02-27T18:00:21.935Z,100965.56
2024-02-27T18:02:48.544Z,100963.13
2024-02-27T18:05:15.358Z,100962.81
2024-02-27T18:07:41.931Z,100975.91
2024-02-27T18:10:09.330Z,100983.78
2024-02-27T18:12:36.037Z,100985.66
2024-02-27T18:15:02.763Z,100994.75
2024-02-27T18:17:29.404Z,100994.81
2024-02-27T18:19:56.372Z,101001.44
2024-02-27T18:22:23.062Z,100991.06
2024-02-27T18:24:49.662Z,100989.09
2024-02-27T18:27:21.149Z,100978.72
2024-02-27T18:29:47.890Z,100979.66
2024-02-27T18:32:14.435Z,100980.50
2024-02-27T18:34:41.014Z,100974.75
2024-02-27T18:37:07.588Z,100977.00
2024-02-27T18:39:34.520Z,100970.56
2024-02-27T18:42:01.723Z,100971.44
2024-02-27T18:44:28.355Z,100965.19
2024-02-27T18:46:55.153Z,100970.63
2024-02-27T18:49:21.871Z,100958.38
2024-02-27T18:51:48.679Z,100975.19
2024-02-27T18:54:15.560Z,100968.72
2024-02-27T18:56:42.162Z,100973.19
2024-02-27T18:59:08.775Z,100975.88
2024-02-27T19:01:35.913Z,100980.59
2024-02-27T19:04:02.967Z,100984.38
2024-02-27T19:06:29.948Z,100986.28
2024-02-27T19:08:56.895Z,100995.25
2024-02-27T19:11:23.758Z,101000.63
2024-02-27T19:13:50.591Z,101005.06
2024-02-27T19:16:20.040Z,101022.03
2024-02-27T19:18:46.655Z,101009.41
2024-02-27T19:21:13.454Z,101023.28
2024-02-27T19:23:40.035Z,101019.53
2024-02-27T19:26:06.786Z,101033.75
2024-02-27T19:28:38.527Z,101026.38
2024-02-27T19:31:05.115Z,101022.06
2024-02-27T19:33:31.756Z,101027.63
2024-02-27T19:35:58.425Z,101029.44
2024-02-27T19:38:24.968Z,101028.13
2024-02-27T19:40:51.484Z,101030.78
2024-02-27T19:43:18.086Z,101030.38
2024-02-27T19:45:45.950Z,101037.19
2024-02-27T19:48:12.841Z,101031.19
2024-02-27T19:50:39.446Z,101036.22
2024-02-27T19:53:07.656Z,101035.44
2024-02-27T19:55:34.515Z,101034.00
2024-02-27T19:58:01.238Z,101040.75
2024-02-27T20:00:28.313Z,101036.72
2024-02-27T20:02:55.054Z,101035.25
2024-02-27T20:05:21.887Z,101036.69
2024-02-27T20:07:48.561Z,101038.66
2024-02-27T20:10:15.714Z,101042.50
2024-02-27T20:12:42.718Z,101041.53
2024-02-27T20:15:10.461Z,101033.25
2024-02-27T20:17:37.413Z,101030.03
2024-02-27T20:20:04.380Z,101031.91
2024-02-27T20:22:31.083Z,101033.31
2024-02-27T20:24:58.042Z,101028.56
2024-02-27T20:27:25.522Z,101032.97
2024-02-27T20:29:58.902Z,101036.47
2024-02-27T20:32:27.438Z,101035.75
2024-02-27T20:34:54.613Z,101032.19
2024-02-27T20:37:21.412Z,101034.44
2024-02-27T20:39:48.979Z,101032.72
2024-02-27T20:42:16.239Z,101037.25
2024-02-27T20:44:43.478Z,101040.69
2024-02-27T20:47:10.631Z,101039.13
2024-02-27T20:49:37.313Z,101042.31
2024-02-27T20:52:04.073Z,101050.06
2024-02-27T20:54:31.594Z,101036.69
2024-02-27T20:56:58.477Z,101050.59
2024-02-27T20:59:25.020Z,101056.97
2024-02-27T21:01:51.611Z,101055.38
2024-02-27T21:04:18.299Z,101059.88
2024-02-27T21:06:45.342Z,101061.94
2024-02-27T21:09:12.437Z,101069.84
2024-02-27T21:11:39.084Z,101072.53
2024-02-27T21:14:05.626Z,101079.78
2024-02-27T21:16:32.426Z,101080.47
2024-02-27T21:18:59.100Z,101088.19
2024-02-27T21:21:25.763Z,101091.28
2024-02-27T21:23:52.387Z,101086.31
2024-02-27T21:26:18.953Z,101081.63
2024-02-27T21:28:45.543Z,101083.16
2024-02-27T21:31:12.540Z,101088.16
2024-02-27T21:33:39.279Z,101095.56
2024-02-27T21:36:05.978Z,101099.97
2024-02-27T21:38:32.562Z,101095.53
2024-02-27T21:40:59.362Z,101088.56
2024-02-27T21:43:25.915Z,101082.34
2024-02-27T21:45:52.714Z,101082.81
2024-02-27T21:48:19.949Z,101078.28
2024-02-27T21:50:46.656Z,101079.06
2024-02-27T21:53:13.432Z,101083.91
2024-02-27T21:55:40.414Z,101073.09
2024-02-27T21:58:07.124Z,101069.44
2024-02-27T22:00:35.003Z,101070.25
2024-02-27T22:03:01.622Z,101067.63
2024-02-27T22:05:28.271Z,101073.72
2024-02-27T22:07:54.866Z,101079.75
2024-02-27T22:10:21.503Z,101075.13
2024-02-27T22:12:48.205Z,101073.44
2024-02-27T22:15:15.225Z,101065.00
2024-02-27T22:17:41.924Z,101066.41
2024-02-27T22:20:09.992Z,101069.56
2024-02-27T22:22:36.864Z,101064.66
2024-02-27T22:25:03.668Z,101064.50
2024-02-27T22:27:30.223Z,101074.19
2024-02-27T22:29:58.194Z,101069.19
2024-02-27T22:32:24.717Z,101068.09
2024-02-27T22:34:51.239Z,101071.44
2024-02-27T22:37:17.814Z,101070.75
2024-02-27T22:39:44.426Z,101060.78
2024-02-27T22:42:11.032Z,101075.31
2024-02-27T22:44:37.593Z,101070.69
2024-02-27T22:47:04.232Z,101067.00
2024-02-27T22:49:31.060Z,101072.03
2024-02-27T22:51:57.736Z,101076.59
2024-02-27T22:54:24.511Z,101072.59
2024-02-27T22:56:51.644Z,101080.97
2024-02-27T22:59:18.236Z,101076.88
2024-02-27T23:01:44.838Z,101078.41
2024-02-27T23:04:11.491Z,101082.53
2024-02-27T23:06:39.533Z,101075.38
2024-02-27T23:09:06.548Z,101070.56
2024-02-27T23:11:33.220Z,101065.31
2024-02-27T23:14:06.146Z,101064.94
2024-02-27T23:16:33.091Z,101063.94
2024-02-27T23:18:59.788Z,101062.66
2024-02-27T23:21:27.703Z,101058.88
2024-02-27T23:23:54.380Z,101055.97
2024-02-27T23:26:21.041Z,101052.88
2024-02-27T23:28:48.928Z,101061.56
2024-02-27T23:31:15.585Z,101070.94
2024-02-27T23:33:42.396Z,101076.47
2024-02-27T23:36:09.336Z,101071.50
2024-02-27T23:38:35.982Z,101070.00
2024-02-27T23:41:02.602Z,101073.22
2024-02-27T23:43:29.181Z,101079.34
2024-02-27T23:45:55.798Z,101092.72
2024-02-27T23:48:22.431Z,101090.25
2024-02-27T23:50:49.025Z,101094.25
2024-02-27T23:53:15.714Z,101098.66
2024-02-27T23:55:42.318Z,101102.09
2024-02-27T23:58:09.060Z,101116.47
